Time;durP1;ratioP1;P1;durP2;ratioP2;P2;SDS_P1;SDS_P2;PMS_P1;PMS_P2;Temp;Humidity;BMP_temperature;BMP_pressure;BME280_temperature;BME280_humidity;BME280_pressure;Samples;Min_cycle;Max_cycle;Signal;HPM_P1;HPM_P2
2022/01/03 00:01:23;;;;;;;3.15;1.33;;;;;;;11.04;71.01;96771.09;5115823;28;20384;-65
2022/01/03 00:03:48;;;;;;;2.67;1.35;;;;;;;10.91;71.46;96773.19;5114811;28;20464;-66
2022/01/03 00:06:14;;;;;;;3.70;1.27;;;;;;;11.06;71.01;96784.81;5115624;28;20418;-66
2022/01/03 00:08:42;;;;;;;2.88;1.60;;;;;;;10.99;71.28;96789.34;5115352;28;20726;-66
2022/01/03 00:11:10;;;;;;;2.65;1.52;;;;;;;10.87;71.87;96790.41;5115421;28;20951;-65
2022/01/03 00:13:38;;;;;;;2.00;1.25;;;;;;;10.81;72.19;96789.50;5115497;28;20396;-66
2022/01/03 00:16:04;;;;;;;1.33;1.23;;;;;;;11.01;71.71;96784.69;5115116;28;20491;-66
2022/01/03 00:18:29;;;;;;;2.30;1.40;;;;;;;11.06;71.03;96776.13;5114918;28;20499;-65
2022/01/03 00:21:00;;;;;;;2.10;1.40;;;;;;;10.93;71.09;96777.16;5114852;28;21005;-66
2022/01/03 00:23:27;;;;;;;2.15;1.33;;;;;;;11.03;70.50;96766.13;5115503;28;20392;-66
2022/01/03 00:25:59;;;;;;;2.22;1.20;;;;;;;11.04;70.43;96755.38;5114829;28;20396;-65
2022/01/03 00:28:31;;;;;;;2.30;1.00;;;;;;;10.99;69.77;96755.25;5114687;28;20744;-65
2022/01/03 00:30:58;;;;;;;3.50;1.30;;;;;;;10.97;69.24;96765.22;5115015;28;20395;-66
2022/01/03 00:33:25;;;;;;;2.33;1.20;;;;;;;11.05;69.18;96756.16;5114937;28;20388;-66
2022/01/03 00:35:59;;;;;;;2.25;1.30;;;;;;;11.01;69.26;96762.91;5114854;28;20425;-65
2022/01/03 00:38:27;;;;;;;2.63;1.17;;;;;;;11.01;68.82;96766.34;5114844;28;20408;-65
2022/01/03 00:40:53;;;;;;;4.07;1.30;;;;;;;11.19;68.62;96778.53;5114490;28;20372;-66
2022/01/03 00:43:19;;;;;;;2.38;1.10;;;;;;;11.08;68.32;96776.72;5114716;28;20427;-65
2022/01/03 00:45:44;;;;;;;2.08;1.27;;;;;;;11.07;68.29;96772.50;5113943;28;20749;-65
2022/01/03 00:48:11;;;;;;;1.90;1.13;;;;;;;11.12;68.12;96768.16;5096273;28;20391;-65
2022/01/03 00:50:37;;;;;;;2.78;1.20;;;;;;;11.12;68.35;96768.16;5113935;28;20489;-65
2022/01/03 00:53:04;;;;;;;3.20;1.13;;;;;;;11.12;68.05;96762.91;5114651;28;20385;-66
2022/01/03 00:55:29;;;;;;;2.58;1.23;;;;;;;11.13;67.65;96761.06;5114066;28;20880;-66
2022/01/03 00:58:09;;;;;;;2.60;1.37;;;;;;;11.04;68.07;96773.72;5114201;28;20454;-66
2022/01/03 01:00:38;;;;;;;3.65;1.40;;;;;;;11.10;67.96;96775.44;5114373;28;20770;-66
2022/01/03 01:03:12;;;;;;;3.35;1.30;;;;;;;11.10;67.75;96783.31;5113694;28;20380;-66
2022/01/03 01:05:45;;;;;;;3.28;1.38;;;;;;;11.10;68.10;96790.38;5113995;28;20407;-66
2022/01/03 01:08:10;;;;;;;1.80;1.13;;;;;;;11.10;68.04;96788.56;5114152;28;20403;-66
2022/01/03 01:10:39;;;;;;;1.17;1.00;;;;;;;11.21;68.10;96786.94;5112993;28;20384;-66
2022/01/03 01:13:08;;;;;;;2.97;1.40;;;;;;;11.27;67.55;96799.94;5113191;28;20389;-66
2022/01/03 01:15:35;;;;;;;2.88;1.20;;;;;;;11.05;67.78;96800.75;5114456;28;20408;-66
2022/01/03 01:18:03;;;;;;;3.67;1.30;;;;;;;11.06;68.46;96812.84;5096284;28;20420;-66
2022/01/03 01:20:30;;;;;;;2.22;1.10;;;;;;;11.02;68.32;96814.34;5096386;28;20431;-66
2022/01/03 01:22:55;;;;;;;2.42;1.20;;;;;;;11.06;68.07;96803.16;5113371;28;21273;-66
2022/01/03 01:25:26;;;;;;;3.28;1.30;;;;;;;11.06;68.16;96804.97;5113793;28;20429;-66
2022/01/03 01:27:56;;;;;;;2.05;1.20;;;;;;;11.09;68.22;96807.94;5114378;28;20714;-66
2022/01/03 01:30:24;;;;;;;2.30;1.17;;;;;;;11.08;68.03;96805.56;5113740;28;20799;-66
2022/01/03 01:33:06;;;;;;;2.67;1.15;;;;;;;10.95;68.76;96811.03;5113589;28;20395;-66
2022/01/03 01:35:48;;;;;;;3.63;1.20;;;;;;;11.04;68.27;96810.44;5113964;28;20420;-66
2022/01/03 01:38:16;;;;;;;2.08;1.08;;;;;;;11.12;67.98;96822.44;5113865;28;20507;-66
2022/01/03 01:40:50;;;;;;;1.75;1.30;;;;;;;11.16;67.91;96836.69;5095275;28;20745;-66
2022/01/03 01:43:29;;;;;;;1.90;1.27;;;;;;;11.02;68.33;96836.13;5113780;28;20391;-66
2022/01/03 01:45:57;;;;;;;1.67;1.20;;;;;;;11.11;68.37;96837.38;5113479;28;20388;-66
2022/01/03 01:48:24;;;;;;;2.78;1.10;;;;;;;11.06;68.21;96821.53;5095417;28;20396;-65
2022/01/03 01:50:51;;;;;;;3.28;1.40;;;;;;;11.16;68.28;96839.31;5113098;28;20392;-66
2022/01/03 01:53:23;;;;;;;2.53;1.10;;;;;;;11.17;68.07;96848.78;5112534;28;20392;-66
2022/01/03 01:55:51;;;;;;;2.65;1.10;;;;;;;11.04;68.60;96847.16;5112900;28;20890;-65
2022/01/03 01:58:27;;;;;;;3.13;1.20;;;;;;;11.07;68.76;96830.19;5113152;28;20891;-65
2022/01/03 02:01:05;;;;;;;2.80;1.20;;;;;;;11.07;68.69;96828.38;5094670;28;20393;-65
2022/01/03 02:03:47;;;;;;;1.85;1.20;;;;;;;11.01;69.45;96831.91;5112976;28;20405;-67
2022/01/03 02:06:31;;;;;;;3.00;1.20;;;;;;;11.04;69.17;96834.06;5113175;28;20434;-66
2022/01/03 02:09:23;;;;;;;1.73;1.00;;;;;;;11.09;69.13;96833.41;5104620;28;20391;-66
2022/01/03 02:11:56;;;;;;;4.18;1.30;;;;;;;11.11;69.55;96811.13;5112869;28;20503;-65
2022/01/03 02:14:25;;;;;;;3.05;1.23;;;;;;;11.05;69.70;96819.13;5113054;28;20396;-66
2022/01/03 02:16:53;;;;;;;3.65;1.40;;;;;;;11.06;69.91;96824.16;5112910;28;20411;-67
2022/01/03 02:19:19;;;;;;;3.15;1.50;;;;;;;11.01;70.19;96831.91;5112897;28;20392;-65
2022/01/03 02:21:45;;;;;;;1.98;1.20;;;;;;;10.97;70.14;96832.59;5112680;28;20503;-66
2022/01/03 02:24:11;;;;;;;2.63;1.20;;;;;;;10.96;70.69;96826.53;5095057;28;20416;-65
2022/01/03 02:26:37;;;;;;;2.58;1.20;;;;;;;10.84;70.73;96830.97;5094680;28;20741;-66
2022/01/03 02:29:03;;;;;;;3.40;1.55;;;;;;;10.86;70.96;96820.28;5112639;28;20392;-66
2022/01/03 02:31:29;;;;;;;3.47;1.35;;;;;;;11.15;69.82;96833.25;5094306;28;20793;-66
2022/01/03 02:33:55;;;;;;;3.20;1.20;;;;;;;10.91;70.83;96833.50;5112675;28;20450;-65
2022/01/03 02:36:20;;;;;;;3.30;1.50;;;;;;;10.82;71.63;96838.25;5112778;28;20761;-66
2022/01/03 02:38:46;;;;;;;2.73;1.30;;;;;;;10.83;71.80;96832.78;5112205;28;20415;-65
2022/01/03 02:41:12;;;;;;;2.97;1.20;;;;;;;10.65;72.47;96819.78;5112453;28;20380;-66
2022/01/03 02:43:37;;;;;;;3.45;1.23;;;;;;;10.68;71.92;96829.03;5112488;28;20380;-66
2022/01/03 02:46:03;;;;;;;2.77;1.27;;;;;;;10.62;72.21;96822.84;5112508;28;20396;-66
2022/01/03 02:48:29;;;;;;;2.17;1.30;;;;;;;10.75;71.99;96833.16;5112488;28;20392;-66
2022/01/03 02:50:55;;;;;;;3.15;1.23;;;;;;;10.72;72.06;96827.53;5094079;28;20423;-66
2022/01/03 02:53:21;;;;;;;3.63;1.48;;;;;;;10.78;71.43;96821.38;5112418;28;20392;-65
2022/01/03 02:55:47;;;;;;;2.30;1.23;;;;;;;10.84;71.59;96810.81;5111984;28;20408;-66
2022/01/03 02:58:13;;;;;;;3.22;1.40;;;;;;;10.77;71.72;96825.84;5094311;28;20823;-66
2022/01/03 03:00:49;;;;;;;3.40;1.40;;;;;;;10.81;71.89;96829.59;5111807;28;20384;-66
2022/01/03 03:03:16;;;;;;;3.10;1.38;;;;;;;10.78;71.99;96834.50;5111736;28;20385;-66
2022/01/03 03:05:43;;;;;;;3.70;1.50;;;;;;;10.69;72.15;96828.81;5112219;28;20723;-68
2022/01/03 03:08:10;;;;;;;2.92;1.42;;;;;;;10.68;72.06;96836.88;5112241;28;20392;-66
2022/01/03 03:10:36;;;;;;;4.18;1.20;;;;;;;10.72;72.34;96833.56;5111957;28;20798;-67
2022/01/03 03:13:01;;;;;;;4.00;1.20;;;;;;;10.71;72.16;96836.41;5112212;28;20461;-66
2022/01/03 03:15:27;;;;;;;4.18;1.48;;;;;;;10.73;72.22;96835.19;5111951;28;20648;-66
2022/01/03 03:17:52;;;;;;;1.87;1.20;;;;;;;10.48;73.35;96836.41;5112541;28;20808;-66
2022/01/03 03:20:29;;;;;;;4.43;1.27;;;;;;;10.54;72.53;96832.84;5112047;28;20479;-64
2022/01/03 03:22:57;;;;;;;2.30;1.38;;;;;;;10.36;73.05;96837.16;5112081;28;20396;-64
2022/01/03 03:25:26;;;;;;;2.97;1.20;;;;;;;10.38;73.04;96848.19;5112209;28;20396;-63
2022/01/03 03:27:56;;;;;;;2.57;1.40;;;;;;;10.40;73.13;96848.78;5093592;28;20880;-65
2022/01/03 03:30:24;;;;;;;2.60;1.38;;;;;;;10.55;72.78;96843.13;5112250;28;20388;-68
2022/01/03 03:32:52;;;;;;;1.40;1.27;;;;;;;10.57;72.22;96846.31;5112038;28;20395;-66
2022/01/03 03:35:18;;;;;;;1.88;1.00;;;;;;;10.50;72.35;96845.63;5097721;28;20495;-65
2022/01/03 03:37:44;;;;;;;2.90;1.25;;;;;;;10.46;72.44;96852.34;5116160;28;20399;-65
2022/01/03 03:40:10;;;;;;;2.78;1.20;;;;;;;10.39;72.58;96849.81;5116093;28;20491;-65
2022/01/03 03:42:36;;;;;;;1.67;1.30;;;;;;;10.40;72.73;96848.78;5115634;28;20416;-66
2022/01/03 03:45:03;;;;;;;4.45;1.35;;;;;;;10.40;72.33;96843.53;5115930;28;20907;-69
2022/01/03 03:47:28;;;;;;;1.77;1.27;;;;;;;10.34;72.44;96851.50;5115900;28;20475;-65
2022/01/03 03:49:54;;;;;;;1.83;1.07;;;;;;;10.38;72.47;96842.97;5097760;28;20479;-65
2022/01/03 03:52:19;;;;;;;2.20;1.00;;;;;;;10.33;72.42;96837.59;5115369;28;20746;-66
2022/01/03 03:54:44;;;;;;;5.63;1.40;;;;;;;10.46;71.70;96822.72;5097372;28;20380;-65
2022/01/03 03:57:12;;;;;;;3.23;1.20;;;;;;;10.38;71.85;96835.09;5115465;28;20386;-65
2022/01/03 03:59:37;;;;;;;2.53;1.23;;;;;;;10.39;72.03;96830.66;5115140;28;20395;-66
2022/01/03 04:02:03;;;;;;;2.78;1.27;;;;;;;10.19;72.24;96833.56;5115172;28;20384;-66
2022/01/03 04:04:28;;;;;;;2.97;1.23;;;;;;;10.27;72.51;96828.00;5102216;28;20817;-66
2022/01/03 04:06:54;;;;;;;2.83;1.20;;;;;;;10.17;72.25;96829.56;5115080;28;20395;-66
2022/01/03 04:09:19;;;;;;;1.57;1.13;;;;;;;10.14;72.74;96824.75;5115467;28;20441;-65
2022/01/03 04:11:45;;;;;;;2.30;1.00;;;;;;;10.20;72.04;96835.16;5114920;28;20819;-66
2022/01/03 04:14:10;;;;;;;2.80;1.10;;;;;;;10.08;73.08;96836.13;5115477;28;20449;-66
2022/01/03 04:16:36;;;;;;;1.75;1.30;;;;;;;10.13;72.05;96829.19;5114803;28;20472;-66
2022/01/03 04:19:02;;;;;;;2.73;1.30;;;;;;;10.18;72.42;96831.16;5097170;28;20427;-71
2022/01/03 04:21:27;;;;;;;3.90;1.40;;;;;;;10.14;72.54;96832.63;5115094;28;20493;-65
2022/01/03 04:23:53;;;;;;;2.60;1.20;;;;;;;10.13;72.61;96820.53;5115034;28;20912;-66
2022/01/03 04:26:19;;;;;;;4.38;1.40;;;;;;;10.01;72.57;96826.53;5114834;28;20895;-65
2022/01/03 04:28:45;;;;;;;3.00;1.20;;;;;;;10.07;72.67;96831.91;5114945;28;20476;-64
2022/01/03 04:31:11;;;;;;;4.95;1.48;;;;;;;10.03;72.83;96824.47;5114708;28;20518;-64
2022/01/03 04:33:36;;;;;;;3.60;1.50;;;;;;;10.01;72.69;96828.34;5114897;28;20388;-66
2022/01/03 04:36:03;;;;;;;4.30;1.33;;;;;;;10.12;72.29;96834.63;5115134;28;20427;-65
2022/01/03 04:38:28;;;;;;;4.82;1.48;;;;;;;10.32;71.97;96836.00;5096431;28;20412;-66
2022/01/03 04:40:54;;;;;;;3.10;1.40;;;;;;;10.41;71.17;96836.50;5114792;28;20874;-66
2022/01/03 04:43:19;;;;;;;5.40;1.57;;;;;;;10.34;71.50;96841.81;5114316;28;20876;-64
2022/01/03 04:45:45;;;;;;;3.67;1.40;;;;;;;10.33;71.23;96831.56;5113842;28;20384;-63
2022/01/03 04:48:10;;;;;;;3.13;1.30;;;;;;;10.38;71.44;96839.53;5114432;28;20900;-66
2022/01/03 04:50:36;;;;;;;5.80;1.30;;;;;;;10.32;72.00;96837.81;5114296;28;20831;-66
2022/01/03 04:53:01;;;;;;;5.22;1.60;;;;;;;10.23;72.29;96841.78;5115002;28;20869;-66
2022/01/03 04:55:26;;;;;;;3.63;1.40;;;;;;;10.36;72.33;96829.31;5114436;28;20415;-66
2022/01/03 04:57:53;;;;;;;4.53;1.48;;;;;;;10.45;72.60;96828.97;5114197;28;20418;-67
2022/01/03 05:00:20;;;;;;;5.28;1.50;;;;;;;10.39;73.87;96835.91;5114133;28;20438;-66
2022/01/03 05:02:46;;;;;;;3.92;1.48;;;;;;;10.32;73.97;96841.22;5114010;28;20388;-66
2022/01/03 05:05:11;;;;;;;3.13;1.43;;;;;;;10.35;74.06;96843.41;5114023;28;20396;-66
2022/01/03 05:07:38;;;;;;;3.90;1.47;;;;;;;10.28;74.90;96844.53;5114369;28;20488;-66
2022/01/03 05:10:04;;;;;;;3.28;1.33;;;;;;;10.24;74.82;96857.28;5114253;28;20757;-66
2022/01/03 05:12:29;;;;;;;3.13;1.70;;;;;;;10.34;75.10;96864.59;5114368;28;20468;-66
2022/01/03 05:14:55;;;;;;;3.07;1.37;;;;;;;10.30;76.17;96853.78;5113460;28;20885;-66
2022/01/03 05:17:20;;;;;;;3.83;1.30;;;;;;;10.17;77.37;96855.75;5114412;28;20904;-66
2022/01/03 05:19:45;;;;;;;4.38;1.27;;;;;;;10.19;76.96;96861.59;5113797;28;20395;-66
2022/01/03 05:22:11;;;;;;;4.90;1.67;;;;;;;10.13;78.07;96865.84;5114217;28;20384;-66
2022/01/03 05:24:37;;;;;;;3.37;1.27;;;;;;;9.87;80.49;96868.78;5113819;28;20892;-66
2022/01/03 05:27:05;;;;;;;4.97;1.53;;;;;;;9.70;81.62;96863.34;5095684;28;20404;-66
2022/01/03 05:29:31;;;;;;;3.30;1.33;;;;;;;9.54;83.97;96864.72;5113576;28;20407;-64
2022/01/03 05:31:56;;;;;;;2.80;1.17;;;;;;;9.81;82.91;96849.53;5113579;28;20873;-64
2022/01/03 05:34:22;;;;;;;2.23;1.23;;;;;;;9.71;84.84;96853.66;5113667;28;20388;-64
2022/01/03 05:36:47;;;;;;;4.57;1.20;;;;;;;9.79;83.30;96851.56;5113293;28;20412;-64
2022/01/03 05:39:13;;;;;;;2.93;1.20;;;;;;;9.64;84.01;96852.97;5113639;28;20409;-64
2022/01/03 05:41:38;;;;;;;4.68;1.42;;;;;;;9.76;84.10;96856.44;5113577;28;20389;-64
2022/01/03 05:44:04;;;;;;;2.77;1.40;;;;;;;9.73;84.25;96857.69;5113020;28;20734;-64
2022/01/03 05:46:30;;;;;;;5.10;1.23;;;;;;;9.76;82.78;96861.66;5113788;28;20400;-64
2022/01/03 05:48:55;;;;;;;3.35;1.40;;;;;;;9.80;80.45;96849.75;5113229;28;20414;-64
2022/01/03 05:51:21;;;;;;;3.63;1.30;;;;;;;10.06;78.73;96854.66;5113062;28;20737;-64
2022/01/03 05:53:46;;;;;;;3.85;1.20;;;;;;;10.15;77.16;96857.75;5113403;28;20380;-64
2022/01/03 05:56:11;;;;;;;2.43;1.20;;;;;;;10.17;76.36;96855.75;5112888;28;20451;-67
2022/01/03 05:58:37;;;;;;;3.13;1.40;;;;;;;10.11;75.93;96864.47;5113520;28;20446;-64
2022/01/03 06:01:03;;;;;;;5.50;1.50;;;;;;;10.22;75.62;96864.56;5113129;28;20779;-65
2022/01/03 06:03:34;;;;;;;4.22;1.52;;;;;;;10.36;74.20;96868.59;5112407;28;20407;-65
2022/01/03 06:08:25;;;;;;;3.58;1.23;;;;;;;10.40;73.44;96867.13;5113166;28;20389;-64
2022/01/03 06:10:51;;;;;;;6.00;1.40;;;;;;;10.23;74.20;96866.16;5112585;28;20385;-64
2022/01/03 06:13:17;;;;;;;4.10;1.50;;;;;;;10.53;72.77;96867.97;5113157;28;20398;-64
2022/01/03 06:15:43;;;;;;;2.58;1.20;;;;;;;10.37;74.03;96858.91;5112421;28;20436;-65
2022/01/03 06:18:11;;;;;;;3.58;1.27;;;;;;;10.43;73.83;96871.09;5112638;28;20994;-65
2022/01/03 06:20:46;;;;;;;3.97;1.40;;;;;;;10.46;73.71;96862.81;5112163;28;20941;-65
2022/01/03 06:23:15;;;;;;;3.97;1.57;;;;;;;10.42;73.84;96861.66;5112981;28;20733;-65
2022/01/03 06:25:40;;;;;;;4.70;1.50;;;;;;;10.44;73.77;96851.75;5112590;28;20440;-65
2022/01/03 06:28:07;;;;;;;3.67;1.70;;;;;;;10.27;74.93;96858.63;5112925;28;20385;-65
2022/01/03 06:30:37;;;;;;;4.07;1.38;;;;;;;10.24;74.76;96859.91;5112628;28;20470;-66
2022/01/03 06:33:04;;;;;;;3.67;1.50;;;;;;;10.11;75.39;96848.75;5112296;28;20384;-65
2022/01/03 06:35:30;;;;;;;4.40;1.50;;;;;;;10.11;75.94;96846.94;5112056;28;20416;-65
2022/01/03 06:37:55;;;;;;;5.73;1.53;;;;;;;10.21;74.52;96849.03;5111748;28;20431;-65
2022/01/03 06:40:21;;;;;;;5.03;1.53;;;;;;;10.13;74.87;96842.28;5094249;28;20400;-65
2022/01/03 06:42:46;;;;;;;3.05;1.55;;;;;;;10.19;74.41;96851.09;5112305;28;20388;-65
2022/01/03 06:45:12;;;;;;;2.93;1.30;;;;;;;10.14;74.28;96853.56;5111659;28;20475;-65
2022/01/03 06:47:38;;;;;;;3.57;1.33;;;;;;;10.47;72.56;96847.91;5112477;28;20479;-65
2022/01/03 06:50:04;;;;;;;4.28;1.40;;;;;;;10.30;74.25;96856.41;5112109;28;20481;-65
2022/01/03 06:52:29;;;;;;;4.38;1.30;;;;;;;10.22;75.47;96843.59;5111930;28;20435;-65
2022/01/03 06:54:55;;;;;;;5.85;1.67;;;;;;;10.29;75.53;96854.78;5112204;28;20839;-65
2022/01/03 06:57:21;;;;;;;3.57;1.50;;;;;;;10.09;76.77;96837.69;5111808;28;20460;-69
2022/01/03 06:59:47;;;;;;;3.87;1.30;;;;;;;9.75;80.66;96842.53;5111929;28;20864;-65
2022/01/03 07:02:12;;;;;;;3.13;1.27;;;;;;;9.89;78.92;96840.56;5111458;28;20385;-65
2022/01/03 07:04:37;;;;;;;2.33;1.27;;;;;;;9.75;79.88;96845.16;5111576;28;20441;-65
2022/01/03 07:07:04;;;;;;;4.93;1.60;;;;;;;9.62;81.42;96849.75;5111399;28;20447;-65
2022/01/03 07:09:29;;;;;;;4.68;1.65;;;;;;;9.62;81.58;96845.34;5093035;28;20525;-65
2022/01/03 07:11:55;;;;;;;4.63;1.67;;;;;;;9.58;82.19;96839.72;5111871;28;20463;-64
2022/01/03 07:19:38;;;;;;;5.43;1.52;;;;;;;9.46;85.75;96849.34;5111740;28;20473;-65
2022/01/03 07:22:05;;;;;;;4.23;1.90;;;;;;;9.46;87.20;96844.09;5111656;28;20884;-66
2022/01/03 07:24:34;;;;;;;4.03;1.90;;;;;;;9.47;87.49;96852.75;5112052;28;20392;-66
2022/01/03 07:27:01;;;;;;;4.65;1.90;;;;;;;9.37;89.15;96847.19;5111027;28;20388;-67
2022/01/03 07:29:27;;;;;;;3.60;1.88;;;;;;;9.39;89.81;96851.22;5111624;28;20384;-67
2022/01/03 07:31:52;;;;;;;4.05;1.75;;;;;;;9.30;89.23;96846.50;5111579;28;20740;-67
2022/01/03 07:34:18;;;;;;;6.13;1.80;;;;;;;9.14;91.84;96850.44;5111820;28;20396;-67
2022/01/03 07:36:43;;;;;;;4.82;1.70;;;;;;;9.03;92.43;96845.91;5111277;28;20750;-67
2022/01/03 07:39:08;;;;;;;3.53;2.03;;;;;;;9.28;97.35;96849.31;5111566;28;20922;-68
2022/01/03 07:41:34;;;;;;;4.68;1.88;;;;;;;9.70;92.19;96842.41;5110580;28;20392;-66
2022/01/03 07:43:59;;;;;;;3.27;1.83;;;;;;;9.42;91.20;96836.88;5093646;28;20395;-64
2022/01/03 07:46:24;;;;;;;4.40;1.97;;;;;;;9.25;91.39;96836.66;5111520;28;20387;-65
2022/01/03 07:48:50;;;;;;;3.63;1.87;;;;;;;9.31;90.78;96834.97;5093152;28;20407;-63
2022/01/03 07:51:15;;;;;;;5.10;1.93;;;;;;;9.29;91.80;96835.22;5111296;28;20380;-65
2022/01/03 07:53:43;;;;;;;4.53;2.00;;;;;;;9.32;90.83;96832.16;5110914;28;20478;-64
2022/01/03 07:56:10;;;;;;;5.40;1.75;;;;;;;9.24;92.77;96836.88;5110822;28;21009;-65
2022/01/03 07:58:36;;;;;;;6.22;2.13;;;;;;;9.19;92.61;96840.16;5110048;28;20392;-68
2022/01/03 08:01:02;;;;;;;3.67;1.80;;;;;;;9.18;92.09;96838.56;5104983;28;20420;-65
2022/01/03 08:03:27;;;;;;;5.13;2.13;;;;;;;9.08;93.03;96841.63;5120926;28;20421;-65
2022/01/03 08:05:52;;;;;;;4.90;2.00;;;;;;;9.05;94.25;96844.69;5110819;28;20395;-64
2022/01/03 08:08:18;;;;;;;4.30;1.80;;;;;;;9.13;94.14;96836.59;5111008;28;20839;-66
2022/01/03 08:10:45;;;;;;;4.00;2.07;;;;;;;9.17;94.89;96827.28;5110549;28;20746;-65
2022/01/03 08:13:10;;;;;;;4.22;1.90;;;;;;;9.03;95.59;96823.19;5110736;28;20389;-65
2022/01/03 08:15:38;;;;;;;4.90;2.17;;;;;;;9.19;94.65;96822.63;5110334;28;20933;-65
2022/01/03 08:18:03;;;;;;;6.22;1.98;;;;;;;9.22;92.92;96810.94;5110656;28;20745;-65
2022/01/03 08:20:29;;;;;;;3.73;1.87;;;;;;;9.29;92.88;96824.75;5095202;28;20380;-64
2022/01/03 08:22:54;;;;;;;6.73;2.10;;;;;;;9.31;91.75;96820.09;5114465;28;20384;-65
2022/01/03 08:25:20;;;;;;;7.03;2.20;;;;;;;9.31;91.26;96816.69;5114189;28;20415;-65
2022/01/03 08:27:45;;;;;;;4.00;1.90;;;;;;;9.34;90.71;96821.50;5114048;28;20878;-65
2022/01/03 08:30:11;;;;;;;4.25;1.88;;;;;;;9.28;91.47;96820.53;5114200;28;20498;-65
2022/01/03 08:32:36;;;;;;;4.83;1.60;;;;;;;9.41;89.75;96820.41;5114141;28;20388;-64
2022/01/03 08:35:01;;;;;;;4.00;1.75;;;;;;;9.38;88.43;96820.03;5114290;28;20453;-65
2022/01/03 08:37:27;;;;;;;6.27;2.03;;;;;;;9.47;88.43;96829.97;5113292;28;20396;-64
2022/01/03 08:39:53;;;;;;;6.80;1.80;;;;;;;9.51;88.13;96832.97;5113420;28;20415;-68
2022/01/03 08:42:20;;;;;;;3.95;2.10;;;;;;;9.74;88.84;96842.78;5103442;28;20402;-65
2022/01/03 08:44:46;;;;;;;4.35;1.90;;;;;;;9.72;86.86;96844.81;5114239;28;20380;-64
2022/01/03 08:47:11;;;;;;;5.03;1.80;;;;;;;9.71;85.26;96836.16;5114262;28;20774;-66
2022/01/03 08:49:36;;;;;;;5.10;1.83;;;;;;;9.81;84.97;96831.19;5113397;28;20774;-65
2022/01/03 08:52:05;;;;;;;5.27;1.90;;;;;;;9.77;85.25;96832.66;5114502;28;20433;-64
2022/01/03 08:54:30;;;;;;;4.28;1.60;;;;;;;9.83;83.84;96831.78;5114041;28;20399;-65
2022/01/03 08:56:56;;;;;;;2.65;1.45;;;;;;;10.06;83.06;96832.91;5114140;28;20487;-64
2022/01/03 08:59:21;;;;;;;2.70;1.60;;;;;;;9.79;82.77;96835.88;5113600;28;20408;-64
2022/01/03 09:01:47;;;;;;;3.67;1.60;;;;;;;10.15;81.72;96839.44;5112130;28;20396;-64
2022/01/03 09:04:12;;;;;;;3.67;1.40;;;;;;;10.12;80.78;96835.44;5113362;28;20388;-64
2022/01/03 09:06:38;;;;;;;5.50;1.70;;;;;;;10.19;81.08;96836.19;5114492;28;20403;-64
2022/01/03 09:09:05;;;;;;;5.10;1.87;;;;;;;10.48;79.44;96833.78;5113495;28;20400;-64
2022/01/03 09:11:31;;;;;;;6.28;1.60;;;;;;;10.34;78.95;96831.34;5113840;28;20385;-64
2022/01/03 09:13:56;;;;;;;5.47;1.43;;;;;;;10.37;78.74;96832.69;5094987;28;20470;-64
2022/01/03 09:16:22;;;;;;;3.30;1.42;;;;;;;10.58;77.89;96831.41;5113572;28;20403;-64
2022/01/03 09:18:47;;;;;;;3.27;1.30;;;;;;;10.56;77.31;96834.25;5113168;28;20810;-65
2022/01/03 09:21:13;;;;;;;6.10;1.70;;;;;;;10.48;77.76;96829.31;5113414;28;20494;-65
2022/01/03 09:23:43;;;;;;;3.17;1.30;;;;;;;10.48;77.43;96829.31;5113377;28;20388;-64
2022/01/03 09:28:53;;;;;;;4.30;1.35;;;;;;;10.50;76.54;96829.91;5113307;28;20816;-64
2022/01/03 09:31:22;;;;;;;3.53;1.23;;;;;;;10.62;76.57;96830.72;5112266;28;20388;-64
2022/01/03 09:33:48;;;;;;;5.72;1.50;;;;;;;10.86;76.01;96828.94;5075563;28;20417;-64
2022/01/03 09:36:14;;;;;;;3.70;1.20;;;;;;;10.83;76.33;96826.75;5093495;28;20885;-64
2022/01/03 09:38:39;;;;;;;4.03;1.30;;;;;;;10.95;73.98;96824.13;5108370;28;20432;-64
2022/01/03 09:41:06;;;;;;;5.37;1.50;;;;;;;10.93;74.38;96821.72;5112866;28;20420;-66
2022/01/03 09:43:56;;;;;;;6.25;1.58;;;;;;;10.90;73.35;96822.19;5112915;28;20388;-64
2022/01/03 09:46:32;;;;;;;3.22;1.35;;;;;;;10.97;73.98;96814.22;5111755;28;20408;-64
2022/01/03 09:48:57;;;;;;;4.40;1.48;;;;;;;10.97;73.35;96822.91;5111428;28;20392;-64
2022/01/03 09:51:29;;;;;;;5.00;1.67;;;;;;;10.94;72.69;96814.66;5112538;28;20513;-65
2022/01/03 09:53:57;;;;;;;2.72;1.17;;;;;;;11.09;73.26;96822.91;5112927;28;20416;-64
2022/01/03 09:56:23;;;;;;;4.80;1.60;;;;;;;11.03;73.36;96816.75;5112697;28;20416;-64
2022/01/03 09:58:49;;;;;;;3.43;1.20;;;;;;;11.15;73.12;96825.38;5112176;28;20384;-65
2022/01/03 10:01:14;;;;;;;4.63;1.20;;;;;;;11.20;72.20;96827.34;5112507;28;20384;-64
2022/01/03 10:03:47;;;;;;;4.03;1.20;;;;;;;11.01;73.74;96820.59;5112418;28;20392;-65
2022/01/03 10:06:13;;;;;;;4.00;1.33;;;;;;;11.16;73.61;96816.50;5094196;28;20400;-64
2022/01/03 10:08:38;;;;;;;2.50;1.20;;;;;;;11.19;73.47;96820.50;5112469;28;20392;-64
2022/01/03 10:11:04;;;;;;;4.38;1.25;;;;;;;11.26;73.97;96821.16;5112726;28;20411;-64
2022/01/03 10:13:29;;;;;;;5.10;1.40;;;;;;;11.41;72.57;96807.59;5112360;28;20392;-64
2022/01/03 10:15:54;;;;;;;4.97;1.50;;;;;;;11.26;73.04;96814.09;5112339;28;20453;-64
2022/01/03 10:18:20;;;;;;;4.32;1.33;;;;;;;11.22;74.26;96818.22;5111970;28;20477;-65
2022/01/03 10:20:47;;;;;;;2.67;1.20;;;;;;;11.37;73.48;96822.97;5112347;28;20377;-64
2022/01/03 10:23:15;;;;;;;3.67;1.30;;;;;;;11.31;74.06;96823.13;5112649;28;20392;-64
2022/01/03 10:25:42;;;;;;;3.43;1.30;;;;;;;11.47;72.62;96815.34;5111770;28;20384;-64
2022/01/03 10:28:08;;;;;;;4.82;1.38;;;;;;;11.45;73.15;96812.13;5094477;28;20415;-66
2022/01/03 10:30:45;;;;;;;4.45;1.55;;;;;;;11.35;72.66;96808.50;5112381;28;20726;-64
2022/01/03 10:33:14;;;;;;;4.43;1.63;;;;;;;11.48;72.83;96811.66;5112256;28;20441;-65
2022/01/03 10:35:42;;;;;;;3.13;1.20;;;;;;;11.34;73.22;96802.44;5112040;28;20448;-65
2022/01/03 10:38:09;;;;;;;3.00;1.05;;;;;;;11.13;73.87;96803.84;5112006;28;20408;-64
2022/01/03 10:40:35;;;;;;;5.28;1.17;;;;;;;11.53;73.52;96805.75;5109214;28;20384;-64
2022/01/03 10:43:15;;;;;;;3.58;1.38;;;;;;;11.28;72.38;96800.75;5112266;28;20381;-64
2022/01/03 10:45:42;;;;;;;4.30;1.33;;;;;;;11.18;73.65;96798.72;5110934;28;20392;-65
2022/01/03 10:48:34;;;;;;;4.93;1.42;;;;;;;11.29;73.55;96794.47;5093632;28;20430;-64
2022/01/03 10:51:01;;;;;;;3.83;1.17;;;;;;;11.39;73.23;96793.88;5111976;28;20423;-64
2022/01/03 10:53:41;;;;;;;5.80;1.40;;;;;;;11.48;72.88;96792.50;5111530;28;20478;-64
2022/01/03 10:56:28;;;;;;;4.50;1.40;;;;;;;11.44;72.84;96796.59;5111198;28;20884;-64
2022/01/03 10:58:58;;;;;;;4.55;1.50;;;;;;;11.42;72.85;96793.44;5112231;28;20393;-64
2022/01/03 11:01:28;;;;;;;3.70;1.30;;;;;;;11.52;72.78;96791.81;5111666;28;20395;-65
2022/01/03 11:03:56;;;;;;;3.38;1.23;;;;;;;11.57;72.88;96796.38;5111650;28;20449;-64
2022/01/03 11:07:13;;;;;;;2.92;1.02;;;;;;;11.65;71.62;96778.41;5110622;28;20404;-64
2022/01/03 11:12:18;;;;;;;4.03;1.40;;;;;;;11.51;72.11;96765.78;5076893;28;20401;-63
2022/01/03 11:14:44;;;;;;;3.95;1.13;;;;;;;11.36;71.66;96760.25;5111443;28;20391;-64
2022/01/03 11:17:29;;;;;;;4.22;1.27;;;;;;;11.59;71.88;96763.59;5111306;28;20495;-64
2022/01/03 11:19:59;;;;;;;3.13;1.30;;;;;;;11.61;71.96;96758.91;5111287;28;20392;-64
2022/01/03 11:22:43;;;;;;;3.38;1.27;;;;;;;11.75;71.59;96758.69;5111256;28;20392;-65
2022/01/03 11:25:10;;;;;;;4.90;1.23;;;;;;;11.86;71.00;96756.00;5111047;28;20389;-65
2022/01/03 11:27:39;;;;;;;3.10;1.30;;;;;;;11.87;71.03;96760.19;5110820;28;20400;-64
2022/01/03 11:30:11;;;;;;;4.05;1.38;;;;;;;11.84;70.79;96759.88;5110037;28;20802;-64
2022/01/03 11:32:39;;;;;;;3.97;1.35;;;;;;;12.17;69.66;96752.06;5111431;28;20745;-64
2022/01/03 11:35:05;;;;;;;4.30;1.23;;;;;;;11.91;70.22;96740.34;5112011;28;20388;-64
2022/01/03 11:37:35;;;;;;;4.22;1.30;;;;;;;11.98;69.38;96727.06;5111325;28;20438;-65
2022/01/03 11:40:03;;;;;;;4.00;1.42;;;;;;;12.12;69.48;96727.53;5093777;28;20408;-65
2022/01/03 11:42:32;;;;;;;2.92;1.30;;;;;;;11.99;69.40;96728.63;5111506;28;20721;-66
2022/01/03 11:44:59;;;;;;;4.03;1.30;;;;;;;11.97;69.30;96728.88;5088993;28;20400;-65
2022/01/03 11:47:27;;;;;;;3.55;1.10;;;;;;;12.00;69.52;96730.22;5111471;28;20389;-65
2022/01/03 11:49:52;;;;;;;4.40;1.10;;;;;;;11.78;69.10;96718.81;5110575;28;20437;-69